createdAt,value
2022-08-23T00:01:39.171Z,99605.28
2022-08-23T00:04:32.143Z,99611.34
2022-08-23T00:07:25.032Z,99615.81
2022-08-23T00:10:15.754Z,99613.31
2022-08-23T00:13:04.283Z,99605.50
2022-08-23T00:15:53.213Z,99606.19
2022-08-23T00:18:41.585Z,99611.63
2022-08-23T00:21:38.378Z,99611.09
2022-08-23T00:24:28.162Z,99605.34
2022-08-23T00:27:18.001Z,99610.91
2022-08-23T00:30:09.316Z,99613.00
2022-08-23T00:32:58.100Z,99607.22
2022-08-23T00:35:46.769Z,99600.47
2022-08-23T00:38:35.348Z,99599.13
2022-08-23T00:41:25.170Z,99605.34
2022-08-23T00:44:35.241Z,99598.22
2022-08-23T00:47:41.719Z,99600.34
2022-08-23T00:50:35.040Z,99596.75
2022-08-23T00:53:26.277Z,99600.50
2022-08-23T00:56:15.947Z,99603.97
2022-08-23T00:59:06.058Z,99608.88
2022-08-23T01:01:54.601Z,99615.44
2022-08-23T01:04:45.425Z,99606.66
2022-08-23T01:07:42.422Z,99616.66
2022-08-23T01:10:33.382Z,99624.88
2022-08-23T01:13:25.358Z,99618.91
2022-08-23T01:16:19.338Z,99621.19
2022-08-23T01:19:15.395Z,99616.84
2022-08-23T01:22:11.103Z,99625.97
2022-08-23T01:25:08.526Z,99624.63
2022-08-23T01:28:02.538Z,99627.84
2022-08-23T01:30:51.721Z,99634.16
2022-08-23T01:33:41.321Z,99619.97
2022-08-23T01:36:30.174Z,99631.75
2022-08-23T01:39:18.776Z,99631.53
2022-08-23T01:42:08.982Z,99619.94
2022-08-23T01:44:58.545Z,99630.34
2022-08-23T01:47:47.477Z,99617.22
2022-08-23T01:53:26.157Z,99617.66
2022-08-23T01:56:14.977Z,99625.31
2022-08-23T01:59:05.191Z,99623.97
2022-08-23T02:01:59.037Z,99626.59
2022-08-23T02:04:47.856Z,99633.63
2022-08-23T02:07:36.374Z,99631.44
2022-08-23T02:10:25.859Z,99636.00
2022-08-23T02:13:14.948Z,99635.63
2022-08-23T02:16:05.747Z,99641.19
2022-08-23T02:18:55.215Z,99629.31
2022-08-23T02:21:43.928Z,99635.81
2022-08-23T02:24:35.071Z,99640.41
2022-08-23T02:27:24.793Z,99649.25
2022-08-23T02:30:14.689Z,99651.91
2022-08-23T02:33:05.630Z,99656.16
2022-08-23T02:35:55.543Z,99651.03
2022-08-23T02:38:44.156Z,99645.94
2022-08-23T02:41:32.695Z,99648.84
2022-08-23T02:44:21.869Z,99646.53
2022-08-23T02:47:11.916Z,99641.56
2022-08-23T02:50:06.786Z,99652.50
2022-08-23T02:52:55.903Z,99665.41
2022-08-23T02:55:46.544Z,99657.91
2022-08-23T02:58:35.156Z,99659.47
2022-08-23T03:01:26.603Z,99657.41
2022-08-23T03:04:16.756Z,99668.50
2022-08-23T03:07:06.903Z,99671.69
2022-08-23T03:09:56.574Z,99662.19
2022-08-23T03:12:45.295Z,99673.75
2022-08-23T03:15:33.972Z,99681.97
2022-08-23T03:18:22.552Z,99679.88
2022-08-23T03:21:11.343Z,99672.28
2022-08-23T03:24:01.678Z,99674.16
2022-08-23T03:26:55.816Z,99681.59
2022-08-23T03:29:44.571Z,99676.41
2022-08-23T03:32:33.418Z,99675.53
2022-08-23T03:35:22.305Z,99678.13
2022-08-23T03:38:11.522Z,99685.09
2022-08-23T03:41:01.468Z,99687.28
2022-08-23T03:43:50.549Z,99694.53
2022-08-23T03:46:39.926Z,99686.25
2022-08-23T03:49:28.548Z,99683.22
2022-08-23T03:52:18.688Z,99693.78
2022-08-23T03:55:08.794Z,99696.41
2022-08-23T03:58:00.869Z,99704.50
2022-08-23T04:00:49.637Z,99706.44
2022-08-23T04:03:38.462Z,99704.78
2022-08-23T04:06:27.559Z,99704.66
2022-08-23T04:09:16.577Z,99709.13
2022-08-23T04:12:17.289Z,99711.66
2022-08-23T04:15:09.604Z,99708.25
2022-08-23T04:18:00.585Z,99710.63
2022-08-23T04:20:49.441Z,99709.78
2022-08-23T04:23:42.442Z,99709.53
2022-08-23T04:26:31.683Z,99709.28
2022-08-23T04:29:33.645Z,99711.91
2022-08-23T04:32:28.135Z,99726.22
2022-08-23T04:35:18.955Z,99724.69
2022-08-23T04:38:18.138Z,99732.66
2022-08-23T04:41:31.824Z,99731.00
2022-08-23T04:44:21.296Z,99738.16
2022-08-23T04:47:11.719Z,99735.09
2022-08-23T04:50:02.745Z,99737.84
2022-08-23T04:52:52.441Z,99734.41
2022-08-23T04:55:41.729Z,99748.31
2022-08-23T04:58:30.886Z,99746.66
2022-08-23T05:01:19.503Z,99747.63
2022-08-23T05:04:09.013Z,99737.25
2022-08-23T05:07:01.205Z,99745.97
2022-08-23T05:09:50.054Z,99754.53
2022-08-23T05:12:39.376Z,99761.28
2022-08-23T05:15:27.957Z,99763.75
2022-08-23T05:18:23.571Z,99765.66
2022-08-23T05:21:16.557Z,99767.22
2022-08-23T05:24:07.248Z,99768.63
2022-08-23T05:26:56.593Z,99770.72
2022-08-23T05:29:45.495Z,99770.91
2022-08-23T05:32:34.078Z,99773.47
2022-08-23T05:35:22.684Z,99786.63
2022-08-23T05:38:11.559Z,99787.66
2022-08-23T05:41:04.127Z,99787.66
2022-08-23T05:43:54.914Z,99796.41
2022-08-23T05:46:43.557Z,99790.34
2022-08-23T05:49:42.698Z,99780.41
2022-08-23T05:52:31.234Z,99772.81
2022-08-23T05:55:19.929Z,99782.03
2022-08-23T05:58:34.969Z,99781.91
2022-08-23T06:01:23.543Z,99784.81
2022-08-23T06:04:15.671Z,99786.41
2022-08-23T06:07:15.313Z,99789.44
2022-08-23T06:10:04.214Z,99791.53
2022-08-23T06:12:53.847Z,99787.94
2022-08-23T06:15:45.684Z,99788.63
2022-08-23T06:18:34.203Z,99797.16
2022-08-23T06:21:37.023Z,99795.31
2022-08-23T06:24:25.700Z,99797.56
2022-08-23T06:27:34.512Z,99800.72
2022-08-23T06:30:23.032Z,99812.34
2022-08-23T06:33:34.092Z,99817.19
2022-08-23T06:37:00.902Z,99814.41
2022-08-23T06:40:09.282Z,99812.19
2022-08-23T06:43:04.489Z,99809.19
2022-08-23T06:46:13.680Z,99810.13
2022-08-23T06:49:07.526Z,99813.59
2022-08-23T06:51:59.954Z,99807.69
2022-08-23T06:54:59.134Z,99812.72
2022-08-23T06:57:47.655Z,99805.13
2022-08-23T07:01:28.932Z,99808.72
2022-08-23T07:04:32.164Z,99805.69
2022-08-23T07:07:46.636Z,99812.78
2022-08-23T07:10:35.803Z,99814.56
2022-08-23T07:13:24.525Z,99816.88
2022-08-23T07:16:13.332Z,99822.66
2022-08-23T07:19:02.121Z,99819.09
2022-08-23T07:21:52.251Z,99820.66
2022-08-23T07:24:41.831Z,99819.25
2022-08-23T07:27:31.397Z,99830.63
2022-08-23T07:30:23.725Z,99826.09
2022-08-23T07:33:13.229Z,99831.50
2022-08-23T07:36:23.297Z,99825.16
2022-08-23T07:39:14.379Z,99833.88
2022-08-23T07:42:15.933Z,99835.50
2022-08-23T07:45:13.919Z,99835.94
2022-08-23T07:48:05.797Z,99838.16
2022-08-23T07:51:02.552Z,99844.28
2022-08-23T07:53:51.902Z,99842.81
2022-08-23T07:56:43.666Z,99844.16
2022-08-23T07:59:50.665Z,99842.59
2022-08-23T08:02:57.946Z,99847.41
2022-08-23T08:05:57.406Z,99848.00
2022-08-23T08:08:46.379Z,99841.66
2022-08-23T08:11:35.781Z,99851.31
2022-08-23T08:14:26.822Z,99843.03
2022-08-23T08:17:19.069Z,99851.38
2022-08-23T08:20:28.231Z,99857.00
2022-08-23T08:23:18.715Z,99856.25
2022-08-23T08:26:46.900Z,99856.91
2022-08-23T08:29:37.312Z,99854.88
2022-08-23T08:32:25.833Z,99859.91
2022-08-23T08:35:15.356Z,99865.69
2022-08-23T08:38:04.327Z,99870.84
2022-08-23T08:41:00.954Z,99873.47
2022-08-23T08:43:57.535Z,99872.44
2022-08-23T08:46:49.787Z,99867.88
2022-08-23T08:49:41.330Z,99865.22
2022-08-23T08:52:33.833Z,99871.13
2022-08-23T08:55:32.854Z,99861.03
2022-08-23T08:58:25.213Z,99866.28
2022-08-23T09:01:14.058Z,99871.16
2022-08-23T09:04:04.806Z,99868.38
2022-08-23T09:06:58.931Z,99864.47
2022-08-23T09:10:14.629Z,99862.44
2022-08-23T09:21:01.898Z,99861.22
2022-08-23T09:24:00.274Z,99859.44
2022-08-23T09:27:02.043Z,99851.38
2022-08-23T09:29:56.736Z,99853.81
2022-08-23T09:32:47.038Z,99852.06
2022-08-23T09:35:37.046Z,99849.13
2022-08-23T09:38:30.026Z,99840.44
2022-08-23T09:41:27.587Z,99852.13
2022-08-23T09:44:35.667Z,99843.59
2022-08-23T09:47:33.376Z,99856.97
2022-08-23T09:50:27.048Z,99858.53
2022-08-23T09:53:16.765Z,99849.44
2022-08-23T09:56:14.451Z,99844.09
2022-08-23T09:59:04.237Z,99852.81
2022-08-23T10:02:02.832Z,99846.94
2022-08-23T10:04:59.817Z,99854.00
2022-08-23T10:07:55.687Z,99842.69
2022-08-23T10:10:50.133Z,99841.44
2022-08-23T10:13:44.662Z,99838.91
2022-08-23T10:16:41.123Z,99845.13
2022-08-23T10:19:39.858Z,99834.28
2022-08-23T10:22:29.732Z,99828.16
2022-08-23T10:25:49.685Z,99830.81
2022-08-23T10:29:01.216Z,99828.34
2022-08-23T10:31:59.392Z,99830.59
2022-08-23T10:35:03.414Z,99821.94
2022-08-23T10:38:00.652Z,99813.09
2022-08-23T10:40:56.163Z,99813.63
2022-08-23T10:43:50.352Z,99820.22
2022-08-23T10:46:48.977Z,99819.44
2022-08-23T10:49:41.459Z,99823.19
2022-08-23T10:52:34.376Z,99816.00
2022-08-23T10:55:36.946Z,99807.75
2022-08-23T10:58:27.178Z,99802.59
2022-08-23T11:01:33.025Z,99805.63
2022-08-23T11:04:28.185Z,99814.38
2022-08-23T11:07:34.170Z,99810.78
2022-08-23T11:10:31.093Z,99799.97
2022-08-23T11:13:23.794Z,99801.69
2022-08-23T11:16:16.060Z,99790.59
2022-08-23T11:19:06.968Z,99800.66
2022-08-23T11:22:14.572Z,99792.97
2022-08-23T11:25:05.968Z,99772.56
2022-08-23T11:28:39.681Z,99781.00
2022-08-23T11:31:30.890Z,99777.22
2022-08-23T11:34:27.273Z,99792.69
2022-08-23T11:37:47.295Z,99785.19
2022-08-23T11:41:17.975Z,99783.13
2022-08-23T11:44:27.693Z,99778.75
2022-08-23T11:47:16.573Z,99773.31
2022-08-23T11:50:23.186Z,99772.69
2022-08-23T11:53:33.392Z,99779.75
2022-08-23T11:56:46.321Z,99768.31
2022-08-23T12:00:03.094Z,99768.38
2022-08-23T12:03:03.047Z,99772.41
2022-08-23T12:06:53.028Z,99765.53
2022-08-23T12:09:53.998Z,99768.16
2022-08-23T12:12:47.169Z,99764.72
2022-08-23T12:16:17.021Z,99758.53
2022-08-23T12:19:10.288Z,99745.84
2022-08-23T12:22:09.011Z,99753.63
2022-08-23T12:25:03.326Z,99767.59
2022-08-23T12:27:57.750Z,99753.16
2022-08-23T12:30:54.467Z,99753.44
2022-08-23T12:33:51.243Z,99754.19
2022-08-23T12:36:45.131Z,99749.34
2022-08-23T12:39:36.401Z,99739.78
2022-08-23T12:42:27.877Z,99746.75
2022-08-23T12:45:21.413Z,99744.75
2022-08-23T12:48:16.718Z,99749.00
2022-08-23T12:51:08.934Z,99750.38
2022-08-23T12:54:00.156Z,99753.84
2022-08-23T12:56:49.924Z,99743.00
2022-08-23T12:59:42.161Z,99733.75
2022-08-23T13:02:34.244Z,99736.81
2022-08-23T13:05:33.530Z,99734.84
2022-08-23T13:08:34.352Z,99736.56
2022-08-23T13:11:24.790Z,99731.34
2022-08-23T13:14:31.061Z,99732.25
2022-08-23T13:17:23.753Z,99723.84
2022-08-23T13:20:22.035Z,99726.84
2022-08-23T13:23:10.525Z,99727.25
2022-08-23T13:25:59.082Z,99720.03
2022-08-23T13:29:06.666Z,99723.97
2022-08-23T13:32:03.297Z,99717.34
2022-08-23T13:34:55.167Z,99719.03
2022-08-23T13:37:46.817Z,99724.75
2022-08-23T13:40:44.446Z,99717.78
2022-08-23T13:43:37.211Z,99706.97
2022-08-23T13:46:27.204Z,99716.00
2022-08-23T13:49:17.668Z,99713.78
2022-08-23T13:55:19.652Z,99706.09
2022-08-23T13:58:10.956Z,99708.06
2022-08-23T14:01:00.583Z,99697.41
2022-08-23T14:03:49.333Z,99698.81
2022-08-23T14:06:37.948Z,99716.00
2022-08-23T14:09:26.384Z,99705.28
2022-08-23T14:12:23.349Z,99705.34
2022-08-23T14:15:12.431Z,99702.25
2022-08-23T14:18:01.368Z,99711.84
2022-08-23T14:20:51.391Z,99708.94
2022-08-23T14:23:40.050Z,99709.25
2022-08-23T14:26:28.533Z,99701.66
2022-08-23T14:29:18.415Z,99700.44
2022-08-23T14:32:09.857Z,99695.81
2022-08-23T14:34:58.396Z,99691.19
2022-08-23T14:38:03.740Z,99707.13
2022-08-23T14:40:55.056Z,99696.41
2022-08-23T14:43:43.476Z,99692.81
2022-08-23T14:46:34.026Z,99688.19
2022-08-23T14:49:22.533Z,99689.09
2022-08-23T14:52:11.339Z,99698.41
2022-08-23T14:54:59.823Z,99694.84
2022-08-23T14:57:49.010Z,99695.63
2022-08-23T15:00:38.902Z,99679.34
2022-08-23T15:03:29.339Z,99685.38
2022-08-23T15:06:18.655Z,99695.22
2022-08-23T15:09:07.075Z,99695.66
2022-08-23T15:15:04.934Z,99685.94
2022-08-23T15:17:56.084Z,99681.25
2022-08-23T15:20:46.337Z,99691.06
2022-08-23T15:23:34.700Z,99681.25
2022-08-23T15:26:24.751Z,99681.69
2022-08-23T15:29:13.232Z,99686.38
2022-08-23T15:32:10.129Z,99675.13
2022-08-23T15:35:01.218Z,99680.47
2022-08-23T15:37:52.448Z,99680.41
2022-08-23T15:40:40.911Z,99677.81
2022-08-23T15:43:34.238Z,99679.75
2022-08-23T15:46:24.022Z,99678.47
2022-08-23T15:49:14.081Z,99682.63
2022-08-23T15:52:02.789Z,99678.19
2022-08-23T15:54:53.775Z,99667.00
2022-08-23T15:57:45.224Z,99667.84
2022-08-23T16:00:33.651Z,99686.63
2022-08-23T16:03:22.768Z,99682.16
2022-08-23T16:06:12.180Z,99682.16
2022-08-23T16:09:00.562Z,99679.09
2022-08-23T16:11:50.752Z,99683.88
2022-08-23T16:14:39.183Z,99681.81
2022-08-23T16:17:27.661Z,99682.63
2022-08-23T16:20:17.109Z,99674.78
2022-08-23T16:23:05.556Z,99678.97
2022-08-23T16:25:56.876Z,99686.38
2022-08-23T16:28:53.608Z,99676.44
2022-08-23T16:31:43.003Z,99682.81
2022-08-23T16:34:31.560Z,99672.13
2022-08-23T16:37:20.784Z,99672.72
2022-08-23T16:40:10.946Z,99672.72
2022-08-23T16:43:00.291Z,99678.06
2022-08-23T16:45:50.827Z,99680.91
2022-08-23T16:48:39.333Z,99687.97
2022-08-23T16:51:27.910Z,99680.09
2022-08-23T16:54:16.335Z,99687.16
2022-08-23T16:57:05.257Z,99690.50
2022-08-23T16:59:53.812Z,99685.59
2022-08-23T17:02:43.871Z,99688.91
2022-08-23T17:05:32.590Z,99692.38
2022-08-23T17:08:21.149Z,99684.97
2022-08-23T17:11:11.675Z,99693.41
2022-08-23T17:14:05.241Z,99684.97
2022-08-23T17:16:55.045Z,99683.16
2022-08-23T17:19:45.074Z,99679.47
2022-08-23T17:22:33.497Z,99689.34
2022-08-23T17:25:22.049Z,99692.47
2022-08-23T17:28:10.641Z,99688.59
2022-08-23T17:30:59.288Z,99689.88
2022-08-23T17:33:47.962Z,99685.38
2022-08-23T17:36:39.458Z,99692.78
2022-08-23T17:39:29.303Z,99708.00
2022-08-23T17:42:18.108Z,99716.78
2022-08-23T17:45:07.680Z,99707.03
2022-08-23T17:47:56.215Z,99717.56
2022-08-23T17:50:44.721Z,99719.84
2022-08-23T17:53:34.977Z,99713.97
2022-08-23T17:56:23.502Z,99727.16
2022-08-23T17:59:14.482Z,99730.06
2022-08-23T18:02:11.240Z,99729.81
2022-08-23T18:04:59.706Z,99741.41
2022-08-23T18:07:48.293Z,99741.75
2022-08-23T18:10:38.240Z,99746.34
2022-08-23T18:13:27.495Z,99743.81
2022-08-23T18:16:16.005Z,99741.84
2022-08-23T18:19:05.358Z,99748.53
2022-08-23T18:21:54.580Z,99756.34
2022-08-23T18:24:43.016Z,99757.84
2022-08-23T18:27:50.438Z,99755.38
2022-08-23T18:30:40.435Z,99771.91
2022-08-23T18:33:32.253Z,99776.03
2022-08-23T18:36:36.123Z,99778.16
2022-08-23T18:39:27.629Z,99780.00
2022-08-23T18:42:20.578Z,99772.44
2022-08-23T18:45:11.341Z,99784.72
2022-08-23T18:47:59.955Z,99790.72
2022-08-23T18:50:49.665Z,99791.69
2022-08-23T18:53:38.425Z,99797.50
2022-08-23T18:56:27.797Z,99794.03
2022-08-23T18:59:16.223Z,99792.53
2022-08-23T19:02:06.445Z,99809.91
2022-08-23T19:04:55.908Z,99801.13
2022-08-23T19:07:44.363Z,99800.75
2022-08-23T19:10:32.962Z,99813.28
2022-08-23T19:13:21.413Z,99817.22
2022-08-23T19:16:12.588Z,99819.50
2022-08-23T19:19:02.631Z,99820.63
2022-08-23T19:21:51.099Z,99826.63
2022-08-23T19:24:39.888Z,99828.13
2022-08-23T19:27:28.374Z,99821.16
2022-08-23T19:30:17.515Z,99826.72
2022-08-23T19:33:06.575Z,99827.19
2022-08-23T19:35:58.043Z,99827.69
2022-08-23T19:38:46.694Z,99843.00
2022-08-23T19:41:35.184Z,99834.25
2022-08-23T19:44:23.684Z,99831.34
2022-08-23T19:47:13.398Z,99832.91
2022-08-23T19:50:09.469Z,99829.53
2022-08-23T19:52:59.335Z,99834.72
2022-08-23T19:55:48.587Z,99829.13
2022-08-23T19:58:37.836Z,99839.72
2022-08-23T20:01:26.183Z,99842.03
2022-08-23T20:04:14.548Z,99836.41
2022-08-23T20:07:03.682Z,99844.00
2022-08-23T20:09:53.741Z,99841.00
2022-08-23T20:12:42.639Z,99840.34
2022-08-23T20:15:31.055Z,99842.59
2022-08-23T20:18:19.972Z,99853.16
2022-08-23T20:21:08.351Z,99851.19
2022-08-23T20:24:01.785Z,99853.88
2022-08-23T20:26:52.273Z,99856.19
2022-08-23T20:29:40.885Z,99851.56
2022-08-23T20:32:29.745Z,99857.38
2022-08-23T20:35:18.364Z,99859.00
2022-08-23T20:38:07.003Z,99862.81
2022-08-23T20:40:55.460Z,99863.44
2022-08-23T20:43:47.676Z,99855.84
2022-08-23T20:46:36.304Z,99851.38
2022-08-23T20:49:24.881Z,99850.56
2022-08-23T20:52:13.333Z,99853.88
2022-08-23T20:55:01.957Z,99853.88
2022-08-23T20:57:50.356Z,99845.63
2022-08-23T21:00:40.153Z,99859.50
2022-08-23T21:03:29.863Z,99859.78
2022-08-23T21:06:20.161Z,99837.78
2022-08-23T21:09:10.517Z,99862.41
2022-08-23T21:11:59.085Z,99861.56
2022-08-23T21:14:47.562Z,99858.25
2022-08-23T21:17:37.437Z,99858.06
2022-08-23T21:20:25.836Z,99867.00
2022-08-23T21:23:14.250Z,99862.63
2022-08-23T21:26:02.665Z,99875.34
2022-08-23T21:28:51.213Z,99866.47
2022-08-23T21:31:39.747Z,99875.88
2022-08-23T21:34:29.577Z,99868.97
2022-08-23T21:37:17.948Z,99862.16
2022-08-23T21:40:08.111Z,99874.69
2022-08-23T21:42:56.635Z,99869.72
2022-08-23T21:45:45.130Z,99873.47
2022-08-23T21:48:33.716Z,99869.88
2022-08-23T21:51:23.499Z,99869.88
2022-08-23T21:54:12.777Z,99869.88
2022-08-23T21:57:01.257Z,99860.59
2022-08-23T21:59:49.752Z,99866.56
2022-08-23T22:02:38.189Z,99859.94
2022-08-23T22:05:26.910Z,99859.44
2022-08-23T22:08:17.041Z,99862.91
2022-08-23T22:11:07.189Z,99858.44
2022-08-23T22:13:55.951Z,99856.13
2022-08-23T22:16:44.542Z,99859.59
2022-08-23T22:19:33.062Z,99851.00
2022-08-23T22:22:21.480Z,99863.69
2022-08-23T22:25:12.561Z,99858.84
2022-08-23T22:28:01.061Z,99864.75
2022-08-23T22:30:49.474Z,99866.78
2022-08-23T22:33:37.880Z,99865.34
2022-08-23T22:36:26.874Z,99856.28
2022-08-23T22:39:15.251Z,99851.69
2022-08-23T22:42:05.458Z,99853.31
2022-08-23T22:44:58.532Z,99856.63
2022-08-23T22:47:46.940Z,99849.22
2022-08-23T22:50:35.408Z,99847.09
2022-08-23T22:53:23.809Z,99843.31
2022-08-23T22:56:12.725Z,99839.69
2022-08-23T22:59:02.552Z,99856.00
2022-08-23T23:01:53.287Z,99840.31
2022-08-23T23:04:42.176Z,99857.22
2022-08-23T23:07:48.161Z,99847.97
2022-08-23T23:10:36.719Z,99858.53
2022-08-23T23:13:25.690Z,99861.84
2022-08-23T23:16:18.714Z,99858.38
2022-08-23T23:19:24.964Z,99861.00
2022-08-23T23:22:14.192Z,99855.41
2022-08-23T23:25:02.835Z,99865.44
2022-08-23T23:27:51.410Z,99868.88
2022-08-23T23:30:40.067Z,99865.34
2022-08-23T23:33:29.998Z,99866.63
2022-08-23T23:36:18.477Z,99869.28
2022-08-23T23:39:07.293Z,99870.56
2022-08-23T23:41:55.724Z,99877.97
2022-08-23T23:44:44.160Z,99886.03
2022-08-23T23:47:32.556Z,99884.06
2022-08-23T23:50:22.664Z,99884.06
2022-08-23T23:53:11.158Z,99890.16
2022-08-23T23:56:03.021Z,99889.34
2022-08-23T23:58:52.699Z,99883.00
